Columbia Gorge Regional the Dalles Municipal Airport
KDLS : rendu visible

Aérodrome :











RETROUVEZ-NOUS SUR...

 
LOGIN :

S'inscrire | Disclaimer

   EN    FR    IT 

 









Légende :    VFR   VFR Marginal   IFR   IFR Intensif   IFR Très Intensif
Visi : 
Plafond : 
>= 8 km
>= 3000ft
5 à 8 km
1000 à 3000 ft
1500m à 5 km
500 à 1000 ft
800 à 1500m
200 à 500 ft
< 800m
< 200 ft
Symboles :   Orages  Brouillard  Fortes neiges  Fortes précipitations  Vent > 20 kt






- Altitude de l'aérodrome : 247 ft


KDLS - Columbia Gorge Regional the Dalles Municipal

DERNIER METAR :
  • 041953Z AUTO 30018G23KT 10SM CLR 23/06 A2998 RMK AO2 PK WND 31031/1919 SLP151 T02330061

METARs EXPIRÉS :
  • 041853Z AUTO 31018G23KT 10SM CLR 23/07 A3000 RMK AO2 PK WND 28026/1804 SLP157 T02280067
  • 041753Z AUTO 28018G26KT 10SM BKN095 22/07 A3002 RMK AO2 PK WND 28026/1747 SLP164 T02170072 10217 20128 58009

TAF KDLS
Valide du 04 à 18h jusqu'au 05 à 18h UTC


041725Z 0418/0518 30015G23KT P6SM SKC
FM050100 30010KT P6SM FEW150
FM050500 30006KT P6SM BKN120
FIR KZSE / Amérique du Nord



MET'MAP, la Météo Aéronautique d'un coup d'oeil ! - Copyright ORBIFLY Décembre 2007 - Disclaimer

ORBIFLY MET'MAP TEAM :

Programmation & Développement : Alexandra Zaïnal
Sur une idée originale de : Baudouin d'Aumeries
Assistance à la programmation : Marc-Olivier Méhu
Soutien technique & logistique : Manuel Goepfert

Contact : metmap@orbifly.com




SOURCES & CREDITS :

   NOAA       Earth
Advisory